Time;durP1;ratioP1;P1;durP2;ratioP2;P2;SDS_P1;SDS_P2;PMS_P1;PMS_P2;Temp;Humidity;BMP_temperature;BMP_pressure;BME280_temperature;BME280_humidity;BME280_pressure;Samples;Min_cycle;Max_cycle;Signal;HPM_P1;HPM_P2
2023/07/11 00:02:13;;;;;;;4.45;3.47;;;17.50;99.90;;;;;;4939526;28;90221;-36
2023/07/11 00:04:38;;;;;;;4.38;3.28;;;17.50;99.90;;;;;;4939712;28;90980;-36
2023/07/11 00:07:04;;;;;;;4.07;3.33;;;17.40;99.90;;;;;;4939355;28;89884;-35
2023/07/11 00:09:30;;;;;;;5.47;3.17;;;17.40;99.90;;;;;;4938852;28;88283;-33
2023/07/11 00:11:55;;;;;;;4.00;3.42;;;17.40;99.90;;;;;;4938863;28;90076;-37
2023/07/11 00:14:21;;;;;;;6.22;3.75;;;17.40;99.90;;;;;;4939181;28;89953;-35
2023/07/11 00:16:47;;;;;;;6.45;3.60;;;17.40;99.90;;;;;;4939531;28;89502;-34
2023/07/11 00:19:13;;;;;;;5.88;3.90;;;17.40;99.90;;;;;;4937937;28;91065;-41
2023/07/11 00:21:38;;;;;;;4.90;3.97;;;17.40;99.90;;;;;;4938919;28;90161;-37
2023/07/11 00:24:05;;;;;;;4.32;3.28;;;17.40;99.90;;;;;;4938387;28;89970;-38
2023/07/11 00:26:33;;;;;;;5.22;3.28;;;17.40;99.90;;;;;;4939069;28;89863;-40
2023/07/11 00:29:01;;;;;;;6.60;3.65;;;17.40;99.90;;;;;;4938844;28;90332;-34
2023/07/11 00:31:27;;;;;;;5.47;3.65;;;17.40;99.90;;;;;;4948929;28;90520;-39
2023/07/11 00:33:53;;;;;;;5.05;3.60;;;17.30;99.90;;;;;;4952334;28;89639;-34
2023/07/11 00:36:18;;;;;;;2.95;2.75;;;17.30;99.90;;;;;;4950032;28;89852;-33
2023/07/11 00:38:44;;;;;;;9.90;3.42;;;17.30;99.90;;;;;;4938711;28;90026;-33
2023/07/11 00:41:10;;;;;;;4.80;3.10;;;17.30;99.90;;;;;;4938645;28;89158;-34
2023/07/11 00:43:36;;;;;;;8.18;3.03;;;17.30;99.90;;;;;;4936086;28;90808;-37
2023/07/11 00:46:16;;;;;;;6.57;4.18;;;17.30;99.90;;;;;;4937715;28;90329;-39
2023/07/11 00:48:49;;;;;;;9.50;3.80;;;17.30;99.90;;;;;;4926099;28;89085;-39
2023/07/11 00:51:22;;;;;;;4.22;3.45;;;17.30;99.90;;;;;;4948414;28;90415;-34
2023/07/11 00:53:48;;;;;;;4.80;2.67;;;17.30;99.90;;;;;;4949930;28;90363;-35
2023/07/11 00:56:18;;;;;;;6.38;3.47;;;17.30;99.90;;;;;;4931740;28;89452;-33
2023/07/11 00:58:45;;;;;;;5.72;3.05;;;17.30;99.90;;;;;;4943817;28;89114;-35
2023/07/11 01:01:12;;;;;;;4.18;2.97;;;17.30;99.90;;;;;;4936127;28;89628;-33
2023/07/11 01:03:38;;;;;;;6.40;3.50;;;17.30;99.90;;;;;;4935292;28;89986;-41
2023/07/11 01:06:10;;;;;;;3.13;2.83;;;17.30;99.90;;;;;;4931840;28;89821;-36
2023/07/11 01:08:36;;;;;;;4.03;3.30;;;17.30;99.90;;;;;;4934613;28;89153;-36
2023/07/11 01:11:02;;;;;;;3.67;3.22;;;17.30;99.90;;;;;;4923008;28;90262;-32
2023/07/11 01:13:27;;;;;;;6.93;3.53;;;17.30;99.90;;;;;;4927618;28;90080;-36
2023/07/11 01:15:53;;;;;;;7.35;3.55;;;17.30;99.90;;;;;;4939162;28;89668;-33
2023/07/11 01:18:19;;;;;;;8.27;3.47;;;17.20;99.90;;;;;;4938762;28;88780;-35
2023/07/11 01:20:44;;;;;;;7.05;2.88;;;17.20;99.90;;;;;;4938065;28;90574;-36
2023/07/11 01:23:10;;;;;;;5.93;3.10;;;17.20;99.90;;;;;;4927374;28;91768;-35
2023/07/11 01:25:38;;;;;;;6.15;3.47;;;17.20;99.90;;;;;;4919276;28;90080;-41
2023/07/11 01:28:04;;;;;;;4.60;3.27;;;17.20;99.90;;;;;;4919938;28;88020;-40
2023/07/11 01:30:30;;;;;;;3.00;2.80;;;17.20;99.90;;;;;;4924064;28;90134;-35
2023/07/11 01:32:55;;;;;;;3.95;3.25;;;17.20;99.90;;;;;;4939275;28;90935;-35
2023/07/11 01:35:21;;;;;;;7.25;2.85;;;17.20;99.90;;;;;;4923897;28;90672;-35
2023/07/11 01:37:47;;;;;;;7.50;3.08;;;17.20;99.90;;;;;;4921079;28;88840;-39
2023/07/11 01:40:13;;;;;;;3.15;2.65;;;17.10;99.90;;;;;;4922972;28;90215;-35
2023/07/11 01:42:40;;;;;;;4.40;3.38;;;17.10;99.90;;;;;;4925354;28;90430;-34
2023/07/11 01:45:08;;;;;;;6.78;3.58;;;17.10;99.90;;;;;;4927863;28;89189;-38
2023/07/11 01:47:34;;;;;;;6.43;3.43;;;17.10;99.90;;;;;;4932944;28;88962;-41
2023/07/11 01:49:59;;;;;;;3.15;2.83;;;17.10;99.90;;;;;;4924938;28;91014;-37
2023/07/11 01:52:25;;;;;;;5.50;3.35;;;17.00;99.90;;;;;;4924309;28;89893;-35
2023/07/11 01:54:51;;;;;;;7.07;3.72;;;17.00;99.90;;;;;;4950725;28;92165;-36
2023/07/11 01:57:19;;;;;;;5.40;4.13;;;17.00;99.90;;;;;;4940345;28;88861;-38
2023/07/11 01:59:45;;;;;;;3.78;3.35;;;17.00;99.90;;;;;;4925259;28;90293;-43
2023/07/11 02:02:11;;;;;;;4.80;3.25;;;17.00;99.90;;;;;;4921917;28;88434;-33
2023/07/11 02:04:37;;;;;;;8.90;3.05;;;17.00;99.90;;;;;;4923952;28;89927;-35
2023/07/11 02:07:05;;;;;;;5.05;3.05;;;17.00;99.90;;;;;;4932680;28;88670;-39
2023/07/11 02:09:31;;;;;;;3.88;3.58;;;17.00;99.90;;;;;;4937613;28;92048;-40
2023/07/11 02:11:57;;;;;;;6.32;3.78;;;17.00;99.90;;;;;;4932277;28;89588;-34
2023/07/11 02:14:23;;;;;;;5.18;3.10;;;17.00;99.90;;;;;;4923080;28;89118;-38
2023/07/11 02:16:51;;;;;;;3.70;3.40;;;17.00;99.90;;;;;;4923113;28;88077;-35
2023/07/11 02:19:20;;;;;;;4.90;3.47;;;16.90;99.90;;;;;;4934758;28;91309;-35
2023/07/11 02:21:46;;;;;;;5.38;3.78;;;17.00;99.90;;;;;;4921258;28;91607;-37
2023/07/11 02:24:14;;;;;;;4.47;3.80;;;16.90;99.90;;;;;;4934963;28;90580;-41
2023/07/11 02:26:40;;;;;;;7.55;3.80;;;16.90;99.90;;;;;;4922774;28;89193;-34
2023/07/11 02:29:07;;;;;;;7.03;3.53;;;16.90;99.90;;;;;;4926384;28;90454;-35
2023/07/11 02:31:34;;;;;;;5.15;4.10;;;16.90;99.90;;;;;;4929817;28;88478;-40
2023/07/11 02:34:01;;;;;;;4.53;4.07;;;16.80;99.90;;;;;;4927543;28;89249;-36
2023/07/11 02:36:27;;;;;;;5.05;3.47;;;16.80;99.90;;;;;;4940681;28;88266;-38
2023/07/11 02:38:53;;;;;;;6.60;3.83;;;16.90;99.90;;;;;;4934730;28;90337;-38
2023/07/11 02:41:19;;;;;;;10.10;4.45;;;16.80;99.90;;;;;;4922320;28;88988;-36
2023/07/11 02:43:47;;;;;;;7.07;4.13;;;16.90;99.90;;;;;;4934146;28;90265;-32
2023/07/11 02:46:14;;;;;;;7.15;4.22;;;16.80;99.90;;;;;;4934583;28;88714;-38
2023/07/11 02:48:40;;;;;;;7.70;4.77;;;16.80;99.90;;;;;;4933730;28;90638;-41
2023/07/11 02:51:06;;;;;;;6.80;4.00;;;16.80;99.90;;;;;;4921678;28;90796;-38
2023/07/11 02:53:32;;;;;;;10.05;4.38;;;16.80;99.90;;;;;;4929708;28;90005;-36
2023/07/11 02:55:57;;;;;;;7.20;4.15;;;16.80;99.90;;;;;;4949791;28;89816;-34
2023/07/11 02:58:24;;;;;;;7.07;4.95;;;16.70;99.90;;;;;;4921997;28;90749;-38
2023/07/11 03:00:53;;;;;;;9.20;4.57;;;16.80;99.90;;;;;;4928374;28;90162;-40
2023/07/11 03:03:18;;;;;;;7.70;5.05;;;16.80;99.90;;;;;;4934533;28;90739;-35
2023/07/11 03:05:45;;;;;;;7.40;4.97;;;16.80;99.90;;;;;;4933144;28;88603;-34
2023/07/11 03:08:11;;;;;;;8.50;5.05;;;16.80;99.90;;;;;;4926157;28;90338;-38
2023/07/11 03:10:37;;;;;;;5.32;4.53;;;16.80;99.90;;;;;;4938303;28;92371;-34
2023/07/11 03:13:03;;;;;;;7.53;5.55;;;16.80;99.90;;;;;;4943987;28;91055;-33
2023/07/11 03:15:28;;;;;;;6.20;4.13;;;16.80;99.90;;;;;;4959492;28;87878;-35
2023/07/11 03:17:54;;;;;;;6.55;4.68;;;16.80;99.90;;;;;;4935456;28;91302;-33
2023/07/11 03:20:20;;;;;;;6.78;5.40;;;16.80;99.90;;;;;;4932950;28;90385;-36
2023/07/11 03:22:46;;;;;;;12.07;6.45;;;16.80;99.90;;;;;;4939771;28;89344;-37
2023/07/11 03:25:12;;;;;;;5.30;4.60;;;16.80;99.90;;;;;;4950352;28;89830;-34
2023/07/11 03:27:37;;;;;;;9.00;4.75;;;16.80;99.90;;;;;;4939736;28;91024;-42
2023/07/11 03:30:03;;;;;;;7.95;5.85;;;16.80;99.90;;;;;;4939860;28;89738;-38
2023/07/11 03:32:29;;;;;;;10.65;6.35;;;16.80;99.90;;;;;;4926380;28;89468;-37
2023/07/11 03:34:54;;;;;;;6.78;4.53;;;16.90;99.90;;;;;;4951170;28;90564;-39
2023/07/11 03:37:20;;;;;;;8.73;5.85;;;16.80;99.90;;;;;;4945231;28;90375;-33
2023/07/11 03:39:46;;;;;;;8.18;4.85;;;16.90;99.90;;;;;;4920201;28;89217;-35
2023/07/11 03:42:12;;;;;;;10.63;5.47;;;16.80;99.90;;;;;;4920527;28;90528;-36
2023/07/11 03:44:38;;;;;;;11.98;5.75;;;16.80;99.90;;;;;;4921555;28;88492;-34
2023/07/11 03:47:04;;;;;;;8.45;6.18;;;16.80;99.90;;;;;;4926980;28;90215;-35
2023/07/11 03:49:29;;;;;;;7.97;6.40;;;16.90;99.90;;;;;;4925625;28;89887;-32
2023/07/11 03:51:55;;;;;;;7.25;4.85;;;16.90;99.90;;;;;;4920807;28;89572;-40
2023/07/11 03:54:23;;;;;;;9.48;5.75;;;16.90;99.90;;;;;;4942343;28;89511;-37
2023/07/11 03:56:53;;;;;;;6.60;6.00;;;16.90;99.90;;;;;;4958092;28;89806;-35
2023/07/11 03:59:19;;;;;;;9.23;5.68;;;17.00;99.90;;;;;;4933639;28;91375;-38
2023/07/11 04:01:46;;;;;;;12.18;5.35;;;17.00;99.90;;;;;;4924631;28;90437;-43
2023/07/11 04:04:13;;;;;;;8.45;5.68;;;17.00;99.90;;;;;;4939275;28;88746;-38
2023/07/11 04:06:39;;;;;;;12.30;5.13;;;17.00;99.90;;;;;;4919574;28;90174;-37
2023/07/11 04:09:04;;;;;;;10.52;5.80;;;17.10;99.90;;;;;;4920107;28;89775;-41
2023/07/11 04:11:30;;;;;;;6.22;5.28;;;17.10;99.90;;;;;;4931986;28;90029;-37
2023/07/11 04:13:56;;;;;;;7.55;6.47;;;17.10;99.90;;;;;;4920599;28;90057;-41
2023/07/11 04:16:22;;;;;;;6.82;6.13;;;17.10;99.90;;;;;;4919979;28;90834;-34
2023/07/11 04:18:47;;;;;;;9.50;5.97;;;17.20;99.90;;;;;;4919770;28;89643;-35
2023/07/11 04:21:13;;;;;;;6.60;5.80;;;17.20;99.90;;;;;;4919386;28;90129;-39
2023/07/11 04:23:39;;;;;;;6.97;6.28;;;17.20;99.90;;;;;;4919287;28;89944;-37
2023/07/11 04:26:04;;;;;;;10.52;6.32;;;17.20;99.90;;;;;;4934421;28;90764;-37
2023/07/11 04:28:30;;;;;;;5.38;4.93;;;17.30;99.90;;;;;;4920267;28;90907;-35
2023/07/11 04:30:56;;;;;;;13.40;5.75;;;17.30;99.90;;;;;;4929122;28;90316;-34
2023/07/11 04:33:22;;;;;;;6.32;5.07;;;17.30;99.90;;;;;;4919989;28;89385;-40
2023/07/11 04:35:48;;;;;;;7.88;6.53;;;17.40;99.90;;;;;;4920454;28;89442;-35
2023/07/11 04:38:13;;;;;;;5.32;4.70;;;17.50;99.90;;;;;;4919361;28;90080;-42
2023/07/11 04:40:39;;;;;;;6.00;5.45;;;17.60;99.90;;;;;;4932798;28;90361;-36
2023/07/11 04:43:05;;;;;;;12.07;5.18;;;17.70;99.90;;;;;;4931619;28;88507;-36
2023/07/11 04:45:32;;;;;;;9.75;5.75;;;17.80;99.90;;;;;;4938008;28;89755;-35
2023/07/11 04:47:57;;;;;;;8.30;5.80;;;17.90;99.90;;;;;;4936959;28;92839;-40
2023/07/11 04:50:23;;;;;;;7.72;5.65;;;18.10;99.90;;;;;;4938151;28;89923;-35
2023/07/11 04:52:49;;;;;;;7.55;5.70;;;18.20;99.90;;;;;;4951576;28;87943;-36
2023/07/11 04:55:15;;;;;;;6.32;5.07;;;18.40;99.90;;;;;;4956217;28;90927;-33
2023/07/11 04:57:41;;;;;;;7.38;5.68;;;18.50;99.90;;;;;;4946184;28;89121;-35
2023/07/11 05:00:07;;;;;;;6.32;5.32;;;18.60;99.90;;;;;;4919179;28;89802;-38
2023/07/11 05:02:34;;;;;;;9.20;5.28;;;18.70;99.90;;;;;;4928831;28;88706;-36
2023/07/11 05:04:59;;;;;;;8.70;5.18;;;19.00;99.90;;;;;;4938772;28;90421;-37
2023/07/11 05:07:25;;;;;;;5.70;5.20;;;19.10;99.90;;;;;;4938330;28;90498;-37
2023/07/11 05:09:51;;;;;;;5.75;4.97;;;19.30;99.90;;;;;;4941314;28;89820;-34
2023/07/11 05:12:16;;;;;;;16.08;5.95;;;19.50;99.90;;;;;;4940633;28;89477;-35
2023/07/11 05:14:42;;;;;;;7.05;5.55;;;19.50;99.90;;;;;;4945138;28;90133;-34
2023/07/11 05:17:07;;;;;;;6.90;5.07;;;19.60;99.90;;;;;;4944846;28;89470;-34
2023/07/11 05:19:33;;;;;;;7.25;5.47;;;19.70;99.90;;;;;;4946902;28;89531;-34
2023/07/11 05:21:59;;;;;;;8.10;5.00;;;19.70;99.90;;;;;;4944798;28;89643;-35
2023/07/11 05:24:25;;;;;;;10.30;6.20;;;19.90;99.90;;;;;;4946233;28;90076;-34
2023/07/11 05:26:51;;;;;;;11.23;6.05;;;20.10;99.90;;;;;;4944553;28;89775;-41
2023/07/11 05:29:16;;;;;;;6.53;5.25;;;20.40;99.90;;;;;;4946392;28;89829;-37
2023/07/11 05:31:43;;;;;;;6.30;4.95;;;20.60;99.90;;;;;;4941158;28;89181;-35
2023/07/11 05:34:10;;;;;;;10.20;5.30;;;20.80;99.90;;;;;;4955258;28;90138;-35
2023/07/11 05:36:36;;;;;;;12.00;5.97;;;20.90;99.90;;;;;;4957757;28;90829;-36
2023/07/11 05:39:14;;;;;;;10.20;5.63;;;20.90;99.90;;;;;;4945546;28;90538;-36
2023/07/11 05:41:45;;;;;;;8.68;5.15;;;21.00;99.90;;;;;;4958525;28;89377;-38
2023/07/11 05:44:12;;;;;;;5.07;4.68;;;21.20;99.90;;;;;;4957796;28;89944;-36
2023/07/11 05:46:39;;;;;;;8.20;5.63;;;21.30;99.90;;;;;;4957905;28;89959;-40
2023/07/11 05:49:06;;;;;;;5.20;4.63;;;21.50;99.90;;;;;;4948782;28;90277;-34
2023/07/11 05:51:32;;;;;;;5.63;4.50;;;21.50;99.90;;;;;;4953876;28;90295;-38
2023/07/11 05:53:57;;;;;;;5.80;5.30;;;21.60;99.90;;;;;;4957830;28;89655;-36
2023/07/11 05:56:24;;;;;;;6.15;5.57;;;21.60;99.90;;;;;;4943265;28;89719;-38
2023/07/11 05:58:51;;;;;;;8.02;4.40;;;21.70;99.90;;;;;;4938865;28;88988;-35
2023/07/11 06:01:24;;;;;;;4.13;3.65;;;21.80;99.90;;;;;;4935263;28;88901;-36
2023/07/11 06:03:51;;;;;;;7.78;5.07;;;22.10;99.90;;;;;;4937809;28;89366;-34
2023/07/11 06:06:19;;;;;;;5.10;4.50;;;22.40;99.90;;;;;;4940411;28;89748;-39
2023/07/11 06:08:45;;;;;;;7.60;4.63;;;22.40;99.90;;;;;;4946689;28;89396;-39
2023/07/11 06:11:10;;;;;;;7.78;4.78;;;22.50;99.90;;;;;;4922332;28;88047;-39
2023/07/11 06:13:38;;;;;;;5.60;4.72;;;22.80;99.90;;;;;;4918770;28;90194;-39
2023/07/11 06:16:13;;;;;;;5.38;4.85;;;23.10;99.90;;;;;;4919440;28;89817;-38
2023/07/11 06:18:39;;;;;;;5.53;5.03;;;23.50;99.90;;;;;;4919644;28;89389;-35
2023/07/11 06:21:06;;;;;;;4.78;3.63;;;23.70;99.90;;;;;;4919796;28;89191;-37
2023/07/11 06:23:32;;;;;;;10.43;5.10;;;23.70;99.90;;;;;;4920226;28;89420;-33
2023/07/11 06:25:58;;;;;;;6.15;3.72;;;24.00;99.90;;;;;;4917445;28;90527;-41
2023/07/11 06:28:24;;;;;;;12.35;4.45;;;24.10;99.90;;;;;;4919704;28;89850;-40
2023/07/11 06:30:50;;;;;;;5.20;3.70;;;24.00;99.90;;;;;;4937917;28;90243;-35
2023/07/11 06:33:18;;;;;;;4.88;4.38;;;24.10;99.90;;;;;;4931568;28;89965;-38
2023/07/11 06:35:50;;;;;;;5.78;4.20;;;24.10;99.90;;;;;;4934174;28;90616;-36
2023/07/11 06:38:17;;;;;;;4.75;4.32;;;24.30;99.90;;;;;;4943703;28;89531;-39
2023/07/11 06:40:51;;;;;;;6.50;4.53;;;24.00;99.90;;;;;;4935134;28;89238;-38
2023/07/11 06:43:17;;;;;;;7.10;4.93;;;24.10;99.90;;;;;;4944274;28;88745;-36
2023/07/11 06:45:47;;;;;;;4.68;4.30;;;23.90;99.90;;;;;;4935103;28;89834;-36
2023/07/11 06:48:17;;;;;;;8.23;3.97;;;23.90;99.90;;;;;;4941431;28;89722;-36
2023/07/11 06:50:50;;;;;;;5.40;4.20;;;24.20;99.90;;;;;;4934751;28;89984;-39
2023/07/11 06:53:17;;;;;;;6.45;3.83;;;24.40;99.90;;;;;;4935233;28;90448;-37
2023/07/11 06:55:47;;;;;;;5.22;4.68;;;24.20;99.90;;;;;;4944631;28;89449;-35
2023/07/11 06:58:14;;;;;;;3.70;3.42;;;24.10;99.90;;;;;;4934335;28;89196;-36
2023/07/11 07:00:39;;;;;;;5.97;4.28;;;24.10;99.90;;;;;;4937299;28;88814;-35
2023/07/11 07:03:07;;;;;;;4.85;3.92;;;23.90;99.90;;;;;;4947384;28;89377;-36
2023/07/11 07:05:33;;;;;;;6.47;3.88;;;23.80;99.90;;;;;;4951844;28;90378;-40
2023/07/11 07:07:59;;;;;;;9.57;4.78;;;23.90;99.90;;;;;;4952005;28;89405;-37
2023/07/11 07:10:24;;;;;;;6.13;4.15;;;24.00;99.90;;;;;;4950444;28;89963;-37
2023/07/11 07:12:50;;;;;;;10.32;4.88;;;24.10;99.90;;;;;;4948103;28;92532;-36
2023/07/11 07:15:15;;;;;;;8.40;4.78;;;24.30;99.90;;;;;;4953411;28;90698;-33
2023/07/11 07:17:41;;;;;;;4.72;4.25;;;24.50;99.90;;;;;;4948551;28;90249;-38
2023/07/11 07:20:07;;;;;;;7.75;5.45;;;24.90;99.90;;;;;;4937949;28;90359;-36
2023/07/11 07:22:33;;;;;;;5.45;4.72;;;25.10;99.90;;;;;;4941045;28;90116;-38
2023/07/11 07:24:59;;;;;;;4.57;3.88;;;25.50;99.90;;;;;;4949679;28;90264;-37
2023/07/11 07:27:24;;;;;;;8.68;4.75;;;25.60;99.90;;;;;;4956089;28;90639;-36
2023/07/11 07:29:51;;;;;;;5.60;5.00;;;25.10;99.90;;;;;;4957192;28;89747;-37
2023/07/11 07:32:17;;;;;;;6.97;4.88;;;25.20;99.90;;;;;;4953061;28;91025;-37
2023/07/11 07:34:42;;;;;;;9.05;5.38;;;24.90;99.90;;;;;;4948605;28;90959;-36
2023/07/11 07:37:08;;;;;;;9.10;4.18;;;25.00;99.90;;;;;;4951838;28;90266;-36
2023/07/11 07:39:34;;;;;;;5.85;4.95;;;25.10;99.90;;;;;;4948699;28;89500;-38
2023/07/11 07:41:59;;;;;;;4.68;4.22;;;25.40;99.90;;;;;;4941511;28;90361;-35
2023/07/11 07:44:25;;;;;;;8.13;4.47;;;25.40;99.90;;;;;;4938625;28;89713;-38
2023/07/11 07:46:50;;;;;;;6.55;4.53;;;25.30;99.90;;;;;;4937034;28;90361;-38
2023/07/11 07:49:16;;;;;;;5.57;4.45;;;25.40;99.90;;;;;;4937581;28;87814;-36
2023/07/11 07:51:42;;;;;;;7.50;4.90;;;25.30;99.90;;;;;;4937883;28;91700;-36
2023/07/11 07:54:07;;;;;;;7.22;5.07;;;25.60;99.90;;;;;;4948142;28;90265;-34
2023/07/11 07:56:35;;;;;;;5.28;4.05;;;25.60;99.90;;;;;;4954892;28;89005;-38
2023/07/11 07:59:00;;;;;;;6.32;3.35;;;25.90;99.90;;;;;;4944800;28;89356;-36
2023/07/11 08:01:26;;;;;;;6.05;5.13;;;25.80;99.90;;;;;;4977416;22;90071;-37
2023/07/11 08:03:52;;;;;;;7.22;4.38;;;25.90;99.90;;;;;;4956834;28;90376;-33
2023/07/11 08:06:19;;;;;;;5.05;4.10;;;25.80;99.90;;;;;;4956464;28;88669;-33
2023/07/11 08:08:49;;;;;;;4.47;3.50;;;25.70;99.90;;;;;;4959374;28;89072;-37
2023/07/11 08:11:17;;;;;;;9.55;4.38;;;25.60;99.90;;;;;;4956536;28;90114;-35
2023/07/11 08:13:43;;;;;;;4.32;3.92;;;25.70;99.90;;;;;;4959101;28;89860;-34
2023/07/11 08:16:09;;;;;;;4.03;3.60;;;25.60;99.90;;;;;;4959425;28;90796;-35
2023/07/11 08:18:35;;;;;;;4.00;3.58;;;25.60;98.90;;;;;;4958957;28;88345;-37
2023/07/11 08:21:00;;;;;;;5.00;4.07;;;26.10;97.30;;;;;;4956029;28;90508;-39
2023/07/11 08:23:27;;;;;;;6.13;4.07;;;26.50;95.90;;;;;;4958814;28;89782;-41
2023/07/11 08:25:53;;;;;;;8.23;3.55;;;26.80;94.60;;;;;;4959929;28;89142;-39
2023/07/11 08:28:19;;;;;;;6.82;3.60;;;27.20;93.50;;;;;;4957263;28;89828;-36
2023/07/11 08:30:44;;;;;;;9.85;3.38;;;27.40;91.70;;;;;;4961109;28;89692;-39
2023/07/11 08:33:10;;;;;;;4.22;3.83;;;27.60;88.60;;;;;;4961092;28;90481;-33
2023/07/11 08:35:36;;;;;;;3.53;3.22;;;27.90;86.50;;;;;;4964532;28;89940;-39
2023/07/11 08:38:02;;;;;;;2.65;2.45;;;27.90;82.00;;;;;;4945636;28;89292;-38
2023/07/11 08:40:33;;;;;;;5.17;3.47;;;28.00;80.90;;;;;;4965288;28;90073;-36
2023/07/11 08:43:04;;;;;;;7.75;3.63;;;28.10;78.30;;;;;;4960863;28;88950;-34
2023/07/11 08:45:53;;;;;;;4.45;2.97;;;28.10;76.50;;;;;;4964829;28;89056;-34
2023/07/11 08:48:22;;;;;;;5.78;3.63;;;28.00;75.30;;;;;;4952218;28;88641;-38
2023/07/11 08:51:06;;;;;;;3.75;3.13;;;28.40;78.00;;;;;;4964666;28;90423;-36
2023/07/11 08:53:43;;;;;;;7.00;3.33;;;28.60;74.90;;;;;;4973307;28;89597;-35
2023/07/11 08:56:26;;;;;;;4.82;3.08;;;28.30;73.60;;;;;;4973826;28;90476;-37
2023/07/11 08:58:53;;;;;;;11.32;3.90;;;28.00;74.00;;;;;;4971013;28;88086;-36
2023/07/11 09:01:45;;;;;;;3.37;3.07;;;28.10;74.30;;;;;;4956952;28;90140;-34
2023/07/11 09:04:15;;;;;;;5.22;3.70;;;27.70;73.50;;;;;;4958725;28;90349;-37
2023/07/11 09:06:50;;;;;;;5.53;3.00;;;27.80;75.30;;;;;;4959070;28;89678;-39
2023/07/11 09:09:16;;;;;;;4.15;2.65;;;27.70;74.90;;;;;;4959784;28;90243;-34
2023/07/11 09:11:58;;;;;;;3.78;3.47;;;27.70;75.00;;;;;;4960846;28;89780;-37
2023/07/11 09:14:48;;;;;;;4.72;2.90;;;27.70;74.30;;;;;;4959351;28;89807;-37
2023/07/11 09:17:19;;;;;;;3.63;3.33;;;27.70;75.10;;;;;;4963944;28;89531;-36
2023/07/11 09:20:40;;;;;;;7.72;3.67;;;27.70;75.60;;;;;;4964528;28;89017;-34
2023/07/11 09:23:30;;;;;;;6.43;3.33;;;27.80;76.60;;;;;;4893649;28;89774;-40
2023/07/11 09:26:02;;;;;;;6.15;3.22;;;27.80;75.60;;;;;;4902232;28;89508;-35
2023/07/11 09:28:29;;;;;;;4.95;2.95;;;27.90;75.50;;;;;;4951409;28;89742;-40
2023/07/11 09:31:02;;;;;;;7.88;3.65;;;28.10;75.90;;;;;;4962702;28;88782;-37
2023/07/11 09:33:32;;;;;;;5.85;2.70;;;28.00;75.70;;;;;;4963926;28;91027;-38
2023/07/11 09:35:59;;;;;;;5.18;4.63;;;28.00;76.80;;;;;;4964049;28;89599;-35
2023/07/11 09:38:40;;;;;;;6.68;3.38;;;28.10;76.20;;;;;;4961993;28;90223;-37
2023/07/11 09:41:18;;;;;;;6.32;3.38;;;28.10;76.70;;;;;;4967136;28;88414;-40
2023/07/11 09:43:43;;;;;;;4.63;3.38;;;28.20;76.60;;;;;;4967034;28;89601;-36
2023/07/11 09:46:14;;;;;;;5.75;3.33;;;28.30;74.90;;;;;;4965592;28;91427;-34
2023/07/11 09:48:42;;;;;;;4.38;3.33;;;28.20;73.00;;;;;;4966323;28;88837;-35
2023/07/11 09:51:31;;;;;;;4.22;3.42;;;28.30;74.40;;;;;;4951157;28;88402;-36
2023/07/11 09:53:57;;;;;;;5.03;3.40;;;28.20;72.40;;;;;;4964016;28;90823;-33
2023/07/11 09:56:26;;;;;;;9.80;3.17;;;28.40;72.40;;;;;;4966376;28;89804;-34
2023/07/11 09:58:57;;;;;;;4.45;3.47;;;28.70;72.90;;;;;;4956622;28;88106;-35
2023/07/11 10:01:30;;;;;;;6.00;3.83;;;28.50;72.10;;;;;;4957110;28;88959;-36
2023/07/11 10:03:58;;;;;;;3.45;3.15;;;28.70;72.90;;;;;;4958180;28;89125;-38
2023/07/11 10:06:31;;;;;;;4.63;2.95;;;28.90;72.20;;;;;;4962906;28;91796;-36
2023/07/11 10:08:57;;;;;;;3.78;3.40;;;29.20;73.30;;;;;;4962909;28;91135;-34
2023/07/11 10:11:22;;;;;;;5.50;3.33;;;29.10;71.20;;;;;;4961124;28;89153;-35
2023/07/11 10:13:56;;;;;;;6.45;3.63;;;29.10;71.20;;;;;;4958793;28;90315;-41
2023/07/11 10:16:22;;;;;;;5.13;3.47;;;29.10;70.80;;;;;;4958563;28;89207;-37
2023/07/11 10:18:48;;;;;;;11.15;3.22;;;29.00;68.80;;;;;;4958992;28;88926;-38
2023/07/11 10:21:18;;;;;;;8.68;4.28;;;29.10;70.00;;;;;;4958790;28;88789;-37
2023/07/11 10:23:47;;;;;;;5.65;3.63;;;29.00;70.40;;;;;;4959065;28;90088;-39
2023/07/11 10:26:21;;;;;;;3.55;3.25;;;28.80;70.60;;;;;;4958478;28;89961;-34
2023/07/11 10:29:12;;;;;;;3.55;3.08;;;28.70;71.20;;;;;;4957925;28;89448;-35
2023/07/11 10:31:44;;;;;;;3.40;2.55;;;29.10;71.80;;;;;;4958017;28;89522;-38
2023/07/11 10:34:50;;;;;;;2.63;2.15;;;28.70;68.10;;;;;;4946267;28;90037;-37
2023/07/11 10:37:25;;;;;;;8.52;3.53;;;28.60;66.30;;;;;;4939678;28;89435;-37
2023/07/11 10:40:19;;;;;;;3.33;3.03;;;28.60;66.50;;;;;;4957223;28;91196;-35
2023/07/11 10:42:47;;;;;;;6.18;2.42;;;28.60;67.20;;;;;;4956318;28;89700;-37
2023/07/11 10:45:18;;;;;;;6.70;2.70;;;28.60;66.60;;;;;;4956328;28;90503;-35
2023/07/11 10:48:21;;;;;;;5.03;3.05;;;28.60;66.20;;;;;;4958429;28;89843;-36
2023/07/11 10:50:57;;;;;;;3.58;2.53;;;28.80;67.30;;;;;;4950695;28;89434;-39
2023/07/11 10:53:31;;;;;;;3.83;2.28;;;28.60;67.80;;;;;;4956431;28;88187;-37
2023/07/11 10:56:20;;;;;;;9.43;2.97;;;28.80;67.10;;;;;;4957938;28;91019;-37
2023/07/11 10:58:46;;;;;;;4.68;2.45;;;28.70;65.60;;;;;;4950284;28;91325;-34
2023/07/11 11:01:34;;;;;;;2.53;2.33;;;28.60;66.30;;;;;;4954749;28;89550;-37
2023/07/11 11:04:39;;;;;;;4.72;3.17;;;28.50;67.50;;;;;;4956191;28;89052;-35
2023/07/11 11:07:17;;;;;;;4.57;3.05;;;28.20;66.80;;;;;;4955163;28;91257;-37
2023/07/11 11:10:01;;;;;;;4.18;3.05;;;27.90;68.10;;;;;;4959054;28;90367;-39
2023/07/11 11:12:34;;;;;;;2.50;2.30;;;28.10;67.60;;;;;;4958512;28;89697;-39
2023/07/11 11:15:18;;;;;;;7.65;3.13;;;28.30;69.40;;;;;;4960217;28;87540;-36
2023/07/11 11:18:07;;;;;;;2.60;2.40;;;28.50;69.20;;;;;;4957323;28;90325;-38
2023/07/11 11:21:10;;;;;;;3.38;3.08;;;28.50;69.30;;;;;;4947173;28;90799;-39
2023/07/11 11:23:36;;;;;;;4.00;2.28;;;28.60;69.20;;;;;;4951059;28;90182;-42
2023/07/11 11:26:07;;;;;;;2.60;2.40;;;28.50;68.80;;;;;;4959391;28;89274;-37
2023/07/11 11:28:55;;;;;;;3.10;2.80;;;28.50;69.20;;;;;;4959370;28;90110;-38
2023/07/11 11:31:26;;;;;;;3.85;2.80;;;28.60;71.10;;;;;;4958884;28;90675;-37
2023/07/11 11:34:09;;;;;;;8.63;3.55;;;28.70;70.90;;;;;;4959170;28;91200;-34
2023/07/11 11:36:43;;;;;;;5.03;3.22;;;29.00;70.60;;;;;;4959521;28;88215;-36
2023/07/11 11:39:27;;;;;;;3.50;3.20;;;28.90;70.40;;;;;;4959119;28;90188;-40
2023/07/11 11:42:01;;;;;;;5.70;3.10;;;28.70;69.50;;;;;;4958209;28;89529;-34
2023/07/11 11:44:40;;;;;;;3.65;3.30;;;28.70;69.90;;;;;;4959397;28;89107;-36
2023/07/11 11:47:08;;;;;;;6.03;3.20;;;28.60;68.30;;;;;;4958851;28;87797;-40
2023/07/11 11:49:34;;;;;;;7.03;4.07;;;28.80;70.80;;;;;;4959932;28;89649;-34
2023/07/11 11:52:00;;;;;;;4.82;3.15;;;28.90;69.70;;;;;;4957985;28;89700;-37
2023/07/11 11:54:26;;;;;;;3.63;2.80;;;28.80;70.60;;;;;;4957868;28;90055;-39
2023/07/11 11:56:56;;;;;;;3.47;2.97;;;28.80;70.10;;;;;;4958247;28;88966;-40
2023/07/11 11:59:26;;;;;;;3.85;2.95;;;28.80;71.10;;;;;;4958064;28;92511;-36
2023/07/11 12:01:57;;;;;;;6.70;3.17;;;28.80;69.80;;;;;;4958307;28;90953;-36
2023/07/11 12:04:34;;;;;;;3.55;2.58;;;28.50;70.40;;;;;;4959034;28;89468;-35
2023/07/11 12:07:12;;;;;;;;;;;28.50;70.30;;;;;;4960846;28;90958;-36
2023/07/11 12:09:53;;;;;;;3.83;2.63;;;28.70;71.00;;;;;;4959963;28;90129;-38
2023/07/11 12:12:54;;;;;;;5.43;3.35;;;28.90;72.10;;;;;;4959262;28;89980;-33
2023/07/11 12:15:22;;;;;;;7.65;3.50;;;28.60;69.40;;;;;;4951083;28;90062;-34
2023/07/11 12:17:49;;;;;;;4.40;2.95;;;28.40;70.40;;;;;;4958836;28;90429;-35
2023/07/11 12:20:25;;;;;;;4.50;2.95;;;28.60;70.60;;;;;;4959203;28;89832;-36
2023/07/11 12:22:50;;;;;;;3.05;2.22;;;28.60;71.10;;;;;;4957311;28;90608;-39
2023/07/11 12:25:20;;;;;;;5.53;2.40;;;28.70;71.50;;;;;;4959212;28;90396;-35
2023/07/11 12:27:56;;;;;;;4.03;2.67;;;28.40;70.10;;;;;;4959776;28;89221;-36
2023/07/11 12:30:33;;;;;;;3.63;2.63;;;28.40;71.50;;;;;;4956252;28;90042;-37
2023/07/11 12:33:22;;;;;;;4.72;3.22;;;28.50;71.60;;;;;;4958458;28;90987;-34
2023/07/11 12:36:10;;;;;;;4.80;2.47;;;28.80;71.80;;;;;;4946319;28;89951;-33
2023/07/11 12:38:49;;;;;;;2.67;2.47;;;29.00;70.50;;;;;;4957560;28;87770;-35
2023/07/11 12:41:32;;;;;;;4.35;2.97;;;28.90;70.50;;;;;;4958510;28;90230;-35
2023/07/11 12:43:59;;;;;;;4.32;3.08;;;28.70;70.80;;;;;;4947546;28;89334;-37
2023/07/11 12:46:36;;;;;;;3.17;2.88;;;28.60;70.60;;;;;;4957909;28;89965;-38
2023/07/11 12:49:26;;;;;;;3.43;2.87;;;28.60;70.80;;;;;;4957587;28;89425;-44
2023/07/11 12:52:01;;;;;;;5.05;2.95;;;28.60;72.00;;;;;;4946117;28;90336;-37
2023/07/11 12:54:27;;;;;;;3.03;2.53;;;28.60;70.20;;;;;;4958504;28;89647;-41
2023/07/11 12:56:53;;;;;;;6.32;2.63;;;28.50;71.50;;;;;;4958018;28;89641;-37
2023/07/11 12:59:24;;;;;;;6.45;3.05;;;28.60;70.40;;;;;;4957997;28;89582;-41